Funes, Argentina
Current Conditions -  °F | °C
As of 1:00 PM on Wednesday 28 Jan 2015 (Local Time) from SAAR Reporting Station
Broken Clouds Broken Clouds  
Wind Chill: 73°   Ceiling: 2000
Heat Index: 73°   Visibility: 6mi
Dew Point: 68°   Wind: 14mph
Humidity: 83%   Direction: 110°ESE
Pressure: 29.77"   Gusts: NA
Location:  32.92°S, 60.82°W
Report Text: SAAR 281600Z 11012KT 9999 SCT008 BKN020 BKN100 23/20 Q1008
Loading
Personal Weather Stations






























Interactive Weather Map New forecast layout! Learn more

10-Day Weather Forecast

Advertisements
Track Severe Weather on mobile